Time,TemperatureF,DewpointF,PressureIn,WindDirection,WindDirectionDegrees,WindSpeedMPH,WindSpeedGustMPH,Humidity,HourlyPrecipIn,Conditions,Clouds,dailyrainin,SolarRadiationWatts/m^2,SoftwareType,DateUTC
2013-03-22 00:02:00,61.0,21.0,-100.00,NW,311,13.0,23.0,21,0.00,,,0.00,0.000000,,2013-03-22 07:02:00,
2013-03-22 00:12:00,61.0,21.0,-100.00,NW,311,13.0,23.0,21,0.00,,,0.00,0.000000,,2013-03-22 07:12:00,
2013-03-22 00:22:00,61.0,21.0,-100.00,NW,311,13.0,23.0,21,0.00,,,0.00,0.000000,,2013-03-22 07:22:00,
2013-03-22 00:52:00,61.0,20.0,-100.00,SW,216,10.0,27.0,20,0.00,,,0.00,0.000000,,2013-03-22 07:52:00,
2013-03-22 01:02:00,61.0,20.0,-100.00,SW,216,10.0,27.0,20,0.00,,,0.00,0.000000,,2013-03-22 08:02:00,
2013-03-22 01:12:00,61.0,20.0,-100.00,SW,216,10.0,27.0,20,0.00,,,0.00,0.000000,,2013-03-22 08:12:00,
2013-03-22 01:22:00,61.0,20.0,-100.00,SW,216,10.0,27.0,20,0.00,,,0.00,0.000000,,2013-03-22 08:22:00,
2013-03-22 01:52:00,58.0,17.0,-100.00,West,260,10.0,25.0,20,0.00,,,0.00,0.000000,,2013-03-22 08:52:00,
2013-03-22 02:12:00,58.0,17.0,-100.00,West,260,10.0,25.0,20,0.00,,,0.00,0.000000,,2013-03-22 09:12:00,
2013-03-22 02:22:00,58.0,17.0,-100.00,West,260,10.0,25.0,20,0.00,,,0.00,0.000000,,2013-03-22 09:22:00,
2013-03-22 02:53:00,58.0,21.0,-100.00,WSW,239,8.0,16.0,24,0.00,,,0.00,0.000000,,2013-03-22 09:53:00,
2013-03-22 03:03:00,58.0,21.0,-100.00,WSW,239,8.0,16.0,24,0.00,,,0.00,0.000000,,2013-03-22 10:03:00,
2013-03-22 03:12:00,58.0,21.0,-100.00,WSW,239,8.0,16.0,24,0.00,,,0.00,0.000000,,2013-03-22 10:12:00,
2013-03-22 03:22:00,58.0,21.0,-100.00,WSW,239,8.0,16.0,24,0.00,,,0.00,0.000000,,2013-03-22 10:22:00,
2013-03-22 03:52:00,57.0,22.0,-100.00,SSW,205,8.0,19.0,25,0.00,,,0.00,0.000000,,2013-03-22 10:52:00,
2013-03-22 04:02:00,57.0,22.0,-100.00,SSW,205,8.0,19.0,25,0.00,,,0.00,0.000000,,2013-03-22 11:02:00,
2013-03-22 04:12:00,57.0,22.0,-100.00,SSW,205,8.0,19.0,25,0.00,,,0.00,0.000000,,2013-03-22 11:12:00,
2013-03-22 04:22:00,57.0,22.0,-100.00,SSW,205,8.0,19.0,25,0.00,,,0.00,0.000000,,2013-03-22 11:22:00,
2013-03-22 04:52:00,53.0,22.0,-100.00,South,174,2.0,14.0,29,0.00,,,0.00,0.000000,,2013-03-22 11:52:00,
2013-03-22 05:02:00,53.0,22.0,-100.00,South,174,2.0,14.0,29,0.00,,,0.00,0.000000,,2013-03-22 12:02:00,
2013-03-22 05:12:00,53.0,22.0,-100.00,South,174,2.0,14.0,29,0.00,,,0.00,0.000000,,2013-03-22 12:12:00,
2013-03-22 05:22:00,53.0,22.0,-100.00,South,174,2.0,14.0,29,0.00,,,0.00,0.000000,,2013-03-22 12:22:00,
2013-03-22 05:52:00,52.0,24.0,-100.00,South,177,3.0,10.0,33,0.00,,,0.00,0.000000,,2013-03-22 12:52:00,
2013-03-22 06:02:00,52.0,24.0,-100.00,South,177,3.0,10.0,33,0.00,,,0.00,0.000000,,2013-03-22 13:02:00,
2013-03-22 06:12:00,52.0,24.0,-100.00,South,177,3.0,10.0,33,0.00,,,0.00,0.000000,,2013-03-22 13:12:00,
2013-03-22 06:22:00,52.0,24.0,-100.00,South,177,3.0,10.0,33,0.00,,,0.00,0.000000,,2013-03-22 13:22:00,
2013-03-22 06:52:00,49.0,23.0,-100.00,ESE,110,2.0,12.0,35,0.00,,,0.00,0.000000,,2013-03-22 13:52:00,
2013-03-22 07:02:00,49.0,23.0,-100.00,ESE,110,2.0,12.0,35,0.00,,,0.00,0.000000,,2013-03-22 14:02:00,
2013-03-22 07:12:00,49.0,23.0,-100.00,ESE,110,2.0,12.0,35,0.00,,,0.00,0.000000,,2013-03-22 14:12:00,
2013-03-22 07:21:00,49.0,23.0,-100.00,ESE,110,2.0,12.0,35,0.00,,,0.00,0.000000,,2013-03-22 14:21:00,
2013-03-22 07:52:00,50.0,21.0,-100.00,WSW,250,11.0,21.0,32,0.00,,,0.00,19.000000,,2013-03-22 14:52:00,
2013-03-22 08:02:00,50.0,21.0,-100.00,WSW,250,11.0,21.0,32,0.00,,,0.00,19.000000,,2013-03-22 15:02:00,
2013-03-22 08:12:00,50.0,21.0,-100.00,WSW,250,11.0,21.0,32,0.00,,,0.00,19.000000,,2013-03-22 15:12:00,
2013-03-22 08:22:00,50.0,21.0,-100.00,WSW,250,11.0,21.0,32,0.00,,,0.00,19.000000,,2013-03-22 15:22:00,
2013-03-22 08:53:00,55.0,15.0,-100.00,South,183,6.0,27.0,20,0.00,,,0.00,254.000000,,2013-03-22 15:53:00,
2013-03-22 09:02:00,55.0,15.0,-100.00,South,183,6.0,27.0,20,0.00,,,0.00,254.000000,,2013-03-22 16:02:00,
2013-03-22 09:13:00,55.0,15.0,-100.00,South,183,6.0,27.0,20,0.00,,,0.00,254.000000,,2013-03-22 16:13:00,
2013-03-22 09:22:00,55.0,15.0,-100.00,South,183,6.0,27.0,20,0.00,,,0.00,254.000000,,2013-03-22 16:22:00,
2013-03-22 09:52:00,58.0,12.0,-100.00,SSW,193,8.0,24.0,16,0.00,,,0.00,517.000000,,2013-03-22 16:52:00,
2013-03-22 10:03:00,58.0,12.0,-100.00,SSW,193,8.0,24.0,16,0.00,,,0.00,517.000000,,2013-03-22 17:03:00,
2013-03-22 10:12:00,58.0,12.0,-100.00,SSW,193,8.0,24.0,16,0.00,,,0.00,517.000000,,2013-03-22 17:12:00,
2013-03-22 10:22:00,58.0,12.0,-100.00,SSW,193,8.0,24.0,16,0.00,,,0.00,517.000000,,2013-03-22 17:22:00,
2013-03-22 10:53:00,60.0,-7.0,-100.00,SW,217,13.0,35.0,6,0.00,,,0.00,790.000000,,2013-03-22 17:53:00,
2013-03-22 11:52:00,65.0,-8.0,-100.00,SE,146,3.0,24.0,5,0.00,,,0.00,1008.000000,,2013-03-22 18:52:00,
2013-03-22 12:52:00,67.0,-6.0,-100.00,East,84,5.0,14.0,5,0.00,,,0.00,1136.000000,,2013-03-22 19:52:00,
2013-03-22 13:52:00,68.0,14.0,-100.00,SSE,160,9.0,18.0,12,0.00,,,0.00,1175.000000,,2013-03-22 20:52:00,
2013-03-22 14:02:00,68.0,14.0,-100.00,SSE,160,9.0,18.0,12,0.00,,,0.00,1175.000000,,2013-03-22 21:02:00,
2013-03-22 14:12:00,68.0,14.0,-100.00,SSE,160,9.0,18.0,12,0.00,,,0.00,1175.000000,,2013-03-22 21:12:00,
2013-03-22 14:22:00,68.0,14.0,-100.00,SSE,160,9.0,18.0,12,0.00,,,0.00,1175.000000,,2013-03-22 21:22:00,
2013-03-22 14:53:00,69.0,22.0,-100.00,South,169,13.0,24.0,17,0.00,,,0.00,1131.000000,,2013-03-22 21:53:00,
2013-03-22 15:02:00,69.0,22.0,-100.00,South,169,13.0,24.0,17,0.00,,,0.00,1131.000000,,2013-03-22 22:02:00,
2013-03-22 15:12:00,69.0,22.0,-100.00,South,169,13.0,24.0,17,0.00,,,0.00,1131.000000,,2013-03-22 22:12:00,
2013-03-22 15:22:00,69.0,22.0,-100.00,South,169,13.0,24.0,17,0.00,,,0.00,1131.000000,,2013-03-22 22:22:00,
2013-03-22 15:53:00,68.0,23.0,-100.00,West,281,7.0,17.0,18,0.00,,,0.00,1004.000000,,2013-03-22 22:53:00,
2013-03-22 16:02:00,68.0,23.0,-100.00,West,281,7.0,17.0,18,0.00,,,0.00,1004.000000,,2013-03-22 23:02:00,
2013-03-22 16:12:00,68.0,23.0,-100.00,West,281,7.0,17.0,18,0.00,,,0.00,1004.000000,,2013-03-22 23:12:00,
2013-03-22 16:22:00,68.0,23.0,-100.00,West,281,7.0,17.0,18,0.00,,,0.00,1004.000000,,2013-03-22 23:22:00,
2013-03-22 16:52:00,66.0,20.0,-100.00,WNW,297,8.0,21.0,17,0.00,,,0.00,797.000000,,2013-03-22 23:52:00,
2013-03-22 17:02:00,66.0,20.0,-100.00,WNW,297,8.0,21.0,17,0.00,,,0.00,797.000000,,2013-03-23 00:02:00,
2013-03-22 17:12:00,66.0,20.0,-100.00,WNW,297,8.0,21.0,17,0.00,,,0.00,797.000000,,2013-03-23 00:12:00,
2013-03-22 17:22:00,66.0,20.0,-100.00,WNW,297,8.0,21.0,17,0.00,,,0.00,797.000000,,2013-03-23 00:22:00,
2013-03-22 17:52:00,64.0,22.0,-100.00,West,267,13.0,23.0,20,0.00,,,0.00,532.000000,,2013-03-23 00:52:00,
2013-03-22 18:03:00,64.0,22.0,-100.00,West,267,13.0,23.0,20,0.00,,,0.00,532.000000,,2013-03-23 01:03:00,
2013-03-22 18:11:00,64.0,22.0,-100.00,West,267,13.0,23.0,20,0.00,,,0.00,532.000000,,2013-03-23 01:11:00,
2013-03-22 18:22:00,64.0,22.0,-100.00,West,267,13.0,23.0,20,0.00,,,0.00,532.000000,,2013-03-23 01:22:00,
2013-03-22 18:52:00,60.0,19.0,-100.00,WNW,290,11.0,22.0,20,0.00,,,0.00,138.000000,,2013-03-23 01:52:00,
2013-03-22 19:02:00,60.0,19.0,-100.00,WNW,290,11.0,22.0,20,0.00,,,0.00,138.000000,,2013-03-23 02:02:00,
2013-03-22 19:12:00,60.0,19.0,-100.00,WNW,290,11.0,22.0,20,0.00,,,0.00,138.000000,,2013-03-23 02:12:00,
2013-03-22 19:22:00,60.0,19.0,-100.00,WNW,290,11.0,22.0,20,0.00,,,0.00,138.000000,,2013-03-23 02:22:00,
2013-03-22 19:52:00,61.0,17.0,-100.00,WNW,288,11.0,20.0,18,0.00,,,0.00,16.000000,,2013-03-23 02:52:00,
2013-03-22 20:02:00,61.0,17.0,-100.00,WNW,288,11.0,20.0,18,0.00,,,0.00,16.000000,,2013-03-23 03:02:00,
2013-03-22 20:12:00,61.0,17.0,-100.00,WNW,288,11.0,20.0,18,0.00,,,0.00,16.000000,,2013-03-23 03:12:00,
2013-03-22 20:22:00,61.0,17.0,-100.00,WNW,288,11.0,20.0,18,0.00,,,0.00,16.000000,,2013-03-23 03:22:00,
2013-03-22 20:53:00,62.0,14.0,-100.00,NW,309,14.0,21.0,15,0.00,,,0.00,0.000000,,2013-03-23 03:53:00,
2013-03-22 21:02:00,62.0,14.0,-100.00,NW,309,14.0,21.0,15,0.00,,,0.00,0.000000,,2013-03-23 04:02:00,
2013-03-22 21:12:00,62.0,14.0,-100.00,NW,309,14.0,21.0,15,0.00,,,0.00,0.000000,,2013-03-23 04:12:00,
2013-03-22 21:22:00,62.0,14.0,-100.00,NW,309,14.0,21.0,15,0.00,,,0.00,0.000000,,2013-03-23 04:22:00,
2013-03-22 21:53:00,61.0,13.0,-100.00,NW,308,12.0,20.0,15,0.00,,,0.00,0.000000,,2013-03-23 04:53:00,
2013-03-22 22:02:00,61.0,13.0,-100.00,NW,308,12.0,20.0,15,0.00,,,0.00,0.000000,,2013-03-23 05:02:00,
2013-03-22 22:12:00,61.0,13.0,-100.00,NW,308,12.0,20.0,15,0.00,,,0.00,0.000000,,2013-03-23 05:12:00,
2013-03-22 22:22:00,61.0,13.0,-100.00,NW,308,12.0,20.0,15,0.00,,,0.00,0.000000,,2013-03-23 05:22:00,
2013-03-22 22:52:00,60.0,14.0,-100.00,West,272,10.0,20.0,16,0.00,,,0.00,0.000000,,2013-03-23 05:52:00,
2013-03-22 23:02:00,60.0,14.0,-100.00,West,272,10.0,20.0,16,0.00,,,0.00,0.000000,,2013-03-23 06:02:00,
2013-03-22 23:12:00,60.0,14.0,-100.00,West,272,10.0,20.0,16,0.00,,,0.00,0.000000,,2013-03-23 06:12:00,
2013-03-22 23:22:00,60.0,14.0,-100.00,West,272,10.0,20.0,16,0.00,,,0.00,0.000000,,2013-03-23 06:22:00,
2013-03-22 23:52:00,59.0,-2.0,-100.00,South,188,4.0,26.0,8,0.00,,,0.00,0.000000,,2013-03-23 06:52:00,